MMCU/CUU METAR and TAF weather

Enter ICAO airport designator
Station Type Date Time Source
MMCU METAR 2019/12/08 03:40 UTC NOAA

MMCU 080340Z 18008KT 10SM SKC 11/05 A3023 RMK ISOL CI


Station Type Date Time Source
MMCU Decoded METAR 2019/12/08 03:40 UTC NOAA

Chihuahua International Airport, Mexico (MMCU) 28-42N 105-58W
Dec 07, 2019 - 10:40 PM EST / 2019.12.08 0340 UTC
Wind: from the S (180 degrees) at 9 MPH (8 KT):0
Visibility: 10 mile(s):0
Sky conditions: clear
Temperature: 51 F (11 C)
Dew Point: 41 F (5 C)
Relative Humidity: 66%
Pressure (altimeter): 30.23 in. Hg (1023 hPa)
ob: MMCU 080340Z 18008KT 10SM SKC 11/05 A3023 RMK ISOL CI
cycle: 3

Station Type Date Time Source
MMCU TAF 2019/12/08 06:36 UTC NOAA

TAF MMCU 080429Z 0806/0906 18006KT P6SM SKC
FM081800 22010KT P6SM BKN250
FM090500 23005KT P6SM SCT250

Example: see airport list